sensor_id;sensor_type;location;lat;lon;timestamp;temperature;humidity
4081;DHT22;2055;50.074;8.436;2022-09-17T00:00:43;8.30;99.90
4081;DHT22;2055;50.074;8.436;2022-09-17T00:03:09;8.40;99.90
4081;DHT22;2055;50.074;8.436;2022-09-17T00:05:35;8.40;99.90
4081;DHT22;2055;50.074;8.436;2022-09-17T00:08:05;8.40;99.90
4081;DHT22;2055;50.074;8.436;2022-09-17T00:10:35;8.40;99.90
4081;DHT22;2055;50.074;8.436;2022-09-17T00:13:02;8.40;99.90
4081;DHT22;2055;50.074;8.436;2022-09-17T00:15:28;8.30;99.90
4081;DHT22;2055;50.074;8.436;2022-09-17T00:17:54;8.30;99.90
4081;DHT22;2055;50.074;8.436;2022-09-17T00:20:23;8.20;99.90
4081;DHT22;2055;50.074;8.436;2022-09-17T00:22:48;8.40;99.90
4081;DHT22;2055;50.074;8.436;2022-09-17T00:25:14;8.40;99.90
4081;DHT22;2055;50.074;8.436;2022-09-17T00:27:41;8.40;99.90
4081;DHT22;2055;50.074;8.436;2022-09-17T00:30:07;8.40;99.90
4081;DHT22;2055;50.074;8.436;2022-09-17T00:32:32;8.40;99.90
4081;DHT22;2055;50.074;8.436;2022-09-17T00:34:58;8.40;99.90
4081;DHT22;2055;50.074;8.436;2022-09-17T00:37:23;8.40;99.90
4081;DHT22;2055;50.074;8.436;2022-09-17T00:39:49;8.40;99.90
4081;DHT22;2055;50.074;8.436;2022-09-17T00:42:16;8.30;99.90
4081;DHT22;2055;50.074;8.436;2022-09-17T00:44:46;8.30;99.90
4081;DHT22;2055;50.074;8.436;2022-09-17T00:47:24;8.40;99.90
4081;DHT22;2055;50.074;8.436;2022-09-17T00:49:58;8.40;99.90
4081;DHT22;2055;50.074;8.436;2022-09-17T00:52:30;8.40;99.90
4081;DHT22;2055;50.074;8.436;2022-09-17T00:55:06;8.40;99.90
4081;DHT22;2055;50.074;8.436;2022-09-17T00:57:34;8.40;99.90
4081;DHT22;2055;50.074;8.436;2022-09-17T01:00:01;8.30;99.90
4081;DHT22;2055;50.074;8.436;2022-09-17T01:02:26;8.30;99.90
4081;DHT22;2055;50.074;8.436;2022-09-17T01:04:52;8.20;99.90
4081;DHT22;2055;50.074;8.436;2022-09-17T01:07:36;8.30;99.90
4081;DHT22;2055;50.074;8.436;2022-09-17T01:15:48;8.40;99.90
4081;DHT22;2055;50.074;8.436;2022-09-17T01:18:35;8.30;99.90
4081;DHT22;2055;50.074;8.436;2022-09-17T01:41:03;8.60;99.90
4081;DHT22;2055;50.074;8.436;2022-09-17T01:46:36;8.80;99.90
4081;DHT22;2055;50.074;8.436;2022-09-17T01:49:05;8.90;99.90
4081;DHT22;2055;50.074;8.436;2022-09-17T01:51:38;9.00;99.90
4081;DHT22;2055;50.074;8.436;2022-09-17T01:57:02;9.00;99.90
4081;DHT22;2055;50.074;8.436;2022-09-17T01:59:34;9.20;99.90
4081;DHT22;2055;50.074;8.436;2022-09-17T02:02:15;9.30;99.90
4081;DHT22;2055;50.074;8.436;2022-09-17T02:04:49;9.30;99.90
4081;DHT22;2055;50.074;8.436;2022-09-17T02:07:21;9.30;99.90
4081;DHT22;2055;50.074;8.436;2022-09-17T02:09:56;9.40;99.90
4081;DHT22;2055;50.074;8.436;2022-09-17T02:12:28;9.40;99.90
4081;DHT22;2055;50.074;8.436;2022-09-17T02:14:58;9.50;99.90
4081;DHT22;2055;50.074;8.436;2022-09-17T02:17:48;9.50;99.90
4081;DHT22;2055;50.074;8.436;2022-09-17T02:20:15;9.50;99.90
4081;DHT22;2055;50.074;8.436;2022-09-17T02:22:47;9.60;99.90
4081;DHT22;2055;50.074;8.436;2022-09-17T02:25:22;9.60;99.90
4081;DHT22;2055;50.074;8.436;2022-09-17T02:27:57;9.70;99.90
4081;DHT22;2055;50.074;8.436;2022-09-17T02:30:25;9.70;99.90
4081;DHT22;2055;50.074;8.436;2022-09-17T02:32:50;9.70;99.90
4081;DHT22;2055;50.074;8.436;2022-09-17T02:35:18;10.10;99.90
4081;DHT22;2055;50.074;8.436;2022-09-17T02:37:44;9.80;99.90
4081;DHT22;2055;50.074;8.436;2022-09-17T02:40:12;9.80;99.90
4081;DHT22;2055;50.074;8.436;2022-09-17T02:55:11;9.90;99.90
4081;DHT22;2055;50.074;8.436;2022-09-17T02:57:52;9.90;99.90
4081;DHT22;2055;50.074;8.436;2022-09-17T03:00:21;9.90;99.90
4081;DHT22;2055;50.074;8.436;2022-09-17T03:02:58;9.90;99.90
4081;DHT22;2055;50.074;8.436;2022-09-17T03:05:25;9.90;99.90
4081;DHT22;2055;50.074;8.436;2022-09-17T03:07:54;9.90;99.90
4081;DHT22;2055;50.074;8.436;2022-09-17T03:10:21;9.90;99.90
4081;DHT22;2055;50.074;8.436;2022-09-17T03:12:47;9.90;99.90
4081;DHT22;2055;50.074;8.436;2022-09-17T03:15:13;9.90;99.90
4081;DHT22;2055;50.074;8.436;2022-09-17T03:17:38;9.90;99.90
4081;DHT22;2055;50.074;8.436;2022-09-17T03:20:04;9.90;99.90
4081;DHT22;2055;50.074;8.436;2022-09-17T03:22:30;9.90;99.90
4081;DHT22;2055;50.074;8.436;2022-09-17T03:24:56;9.90;99.90
4081;DHT22;2055;50.074;8.436;2022-09-17T03:27:22;9.90;99.90
4081;DHT22;2055;50.074;8.436;2022-09-17T03:29:47;9.90;99.90
4081;DHT22;2055;50.074;8.436;2022-09-17T03:32:13;9.90;99.90
4081;DHT22;2055;50.074;8.436;2022-09-17T03:34:38;9.90;99.90
4081;DHT22;2055;50.074;8.436;2022-09-17T03:37:04;9.90;99.90
4081;DHT22;2055;50.074;8.436;2022-09-17T03:39:29;9.90;99.90
4081;DHT22;2055;50.074;8.436;2022-09-17T03:41:55;9.80;99.90
4081;DHT22;2055;50.074;8.436;2022-09-17T03:44:20;9.80;99.90
4081;DHT22;2055;50.074;8.436;2022-09-17T03:46:48;9.80;99.90
4081;DHT22;2055;50.074;8.436;2022-09-17T03:49:14;9.80;99.90
4081;DHT22;2055;50.074;8.436;2022-09-17T03:51:39;9.80;99.90
4081;DHT22;2055;50.074;8.436;2022-09-17T03:54:05;9.70;99.90
4081;DHT22;2055;50.074;8.436;2022-09-17T03:56:30;9.70;99.90
4081;DHT22;2055;50.074;8.436;2022-09-17T03:58:58;9.70;99.90
4081;DHT22;2055;50.074;8.436;2022-09-17T04:01:23;9.70;99.90
4081;DHT22;2055;50.074;8.436;2022-09-17T04:03:49;9.70;99.90
4081;DHT22;2055;50.074;8.436;2022-09-17T04:06:14;9.70;99.90
4081;DHT22;2055;50.074;8.436;2022-09-17T04:08:40;9.70;99.90
4081;DHT22;2055;50.074;8.436;2022-09-17T04:11:06;9.70;99.90
4081;DHT22;2055;50.074;8.436;2022-09-17T04:13:32;9.70;99.90
4081;DHT22;2055;50.074;8.436;2022-09-17T04:15:57;9.60;99.90
4081;DHT22;2055;50.074;8.436;2022-09-17T04:18:23;9.70;99.90
4081;DHT22;2055;50.074;8.436;2022-09-17T04:20:48;9.60;99.90
4081;DHT22;2055;50.074;8.436;2022-09-17T04:23:14;9.70;99.90
4081;DHT22;2055;50.074;8.436;2022-09-17T04:25:39;9.60;99.90
4081;DHT22;2055;50.074;8.436;2022-09-17T04:28:05;9.60;99.90
4081;DHT22;2055;50.074;8.436;2022-09-17T04:30:31;9.60;99.90
4081;DHT22;2055;50.074;8.436;2022-09-17T04:32:56;9.60;99.90
4081;DHT22;2055;50.074;8.436;2022-09-17T04:35:22;9.60;99.90
4081;DHT22;2055;50.074;8.436;2022-09-17T04:37:57;9.60;99.90
4081;DHT22;2055;50.074;8.436;2022-09-17T04:40:24;9.60;99.90
4081;DHT22;2055;50.074;8.436;2022-09-17T04:42:54;9.60;99.90
4081;DHT22;2055;50.074;8.436;2022-09-17T04:45:20;9.60;99.90
4081;DHT22;2055;50.074;8.436;2022-09-17T04:47:46;9.60;99.90
4081;DHT22;2055;50.074;8.436;2022-09-17T04:50:11;9.60;99.90
4081;DHT22;2055;50.074;8.436;2022-09-17T04:52:41;9.60;99.90
4081;DHT22;2055;50.074;8.436;2022-09-17T04:55:07;9.60;99.90
4081;DHT22;2055;50.074;8.436;2022-09-17T04:57:33;9.60;99.90
4081;DHT22;2055;50.074;8.436;2022-09-17T04:59:58;9.60;99.90
4081;DHT22;2055;50.074;8.436;2022-09-17T05:02:24;9.60;99.90
4081;DHT22;2055;50.074;8.436;2022-09-17T05:04:49;9.60;99.90
4081;DHT22;2055;50.074;8.436;2022-09-17T05:07:15;9.60;99.90
4081;DHT22;2055;50.074;8.436;2022-09-17T05:09:41;9.60;99.90
4081;DHT22;2055;50.074;8.436;2022-09-17T05:12:06;9.60;99.90
4081;DHT22;2055;50.074;8.436;2022-09-17T05:14:32;9.60;99.90
4081;DHT22;2055;50.074;8.436;2022-09-17T05:16:57;9.60;99.90
4081;DHT22;2055;50.074;8.436;2022-09-17T05:19:23;9.60;99.90
4081;DHT22;2055;50.074;8.436;2022-09-17T05:21:48;9.60;99.90
4081;DHT22;2055;50.074;8.436;2022-09-17T05:24:14;9.60;99.90
4081;DHT22;2055;50.074;8.436;2022-09-17T05:26:39;9.60;99.90
4081;DHT22;2055;50.074;8.436;2022-09-17T05:29:05;9.60;99.90
4081;DHT22;2055;50.074;8.436;2022-09-17T05:31:30;9.60;99.90
4081;DHT22;2055;50.074;8.436;2022-09-17T05:33:57;9.60;99.90
4081;DHT22;2055;50.074;8.436;2022-09-17T05:36:23;9.60;99.90
4081;DHT22;2055;50.074;8.436;2022-09-17T05:38:49;9.70;99.90
4081;DHT22;2055;50.074;8.436;2022-09-17T05:41:14;9.70;99.90
4081;DHT22;2055;50.074;8.436;2022-09-17T05:43:42;9.80;99.90
4081;DHT22;2055;50.074;8.436;2022-09-17T05:46:08;9.70;99.90
4081;DHT22;2055;50.074;8.436;2022-09-17T05:48:34;9.80;99.90
4081;DHT22;2055;50.074;8.436;2022-09-17T05:50:59;9.80;99.90
4081;DHT22;2055;50.074;8.436;2022-09-17T05:53:25;9.80;99.90
4081;DHT22;2055;50.074;8.436;2022-09-17T05:55:54;9.80;99.90
4081;DHT22;2055;50.074;8.436;2022-09-17T05:58:20;9.90;99.90
4081;DHT22;2055;50.074;8.436;2022-09-17T06:00:46;10.00;99.90
4081;DHT22;2055;50.074;8.436;2022-09-17T06:03:14;10.00;99.90
4081;DHT22;2055;50.074;8.436;2022-09-17T06:05:40;10.10;99.90
4081;DHT22;2055;50.074;8.436;2022-09-17T06:08:06;10.10;99.90
4081;DHT22;2055;50.074;8.436;2022-09-17T06:10:35;10.20;99.90
4081;DHT22;2055;50.074;8.436;2022-09-17T06:13:01;10.30;99.90
4081;DHT22;2055;50.074;8.436;2022-09-17T06:15:26;10.40;99.90
4081;DHT22;2055;50.074;8.436;2022-09-17T06:17:52;10.50;99.90
4081;DHT22;2055;50.074;8.436;2022-09-17T06:20:18;10.70;99.90
4081;DHT22;2055;50.074;8.436;2022-09-17T06:22:44;10.90;99.90
4081;DHT22;2055;50.074;8.436;2022-09-17T06:25:10;11.10;99.90
4081;DHT22;2055;50.074;8.436;2022-09-17T06:27:35;11.20;99.90
4081;DHT22;2055;50.074;8.436;2022-09-17T06:30:01;11.30;99.90
4081;DHT22;2055;50.074;8.436;2022-09-17T06:32:27;11.30;99.90
4081;DHT22;2055;50.074;8.436;2022-09-17T06:34:53;11.30;99.90
4081;DHT22;2055;50.074;8.436;2022-09-17T06:37:26;11.40;99.90
4081;DHT22;2055;50.074;8.436;2022-09-17T06:39:51;11.30;99.90
4081;DHT22;2055;50.074;8.436;2022-09-17T06:42:17;11.30;99.90
4081;DHT22;2055;50.074;8.436;2022-09-17T06:44:42;11.30;99.90
4081;DHT22;2055;50.074;8.436;2022-09-17T06:47:08;11.30;99.90
4081;DHT22;2055;50.074;8.436;2022-09-17T06:49:33;11.20;99.90
4081;DHT22;2055;50.074;8.436;2022-09-17T06:51:59;11.30;99.90
4081;DHT22;2055;50.074;8.436;2022-09-17T06:54:24;11.30;99.90
4081;DHT22;2055;50.074;8.436;2022-09-17T06:56:50;11.60;99.90
4081;DHT22;2055;50.074;8.436;2022-09-17T06:59:15;11.90;99.90
4081;DHT22;2055;50.074;8.436;2022-09-17T07:01:42;12.00;99.90
4081;DHT22;2055;50.074;8.436;2022-09-17T07:04:08;12.00;99.90
4081;DHT22;2055;50.074;8.436;2022-09-17T07:06:33;11.90;99.90
4081;DHT22;2055;50.074;8.436;2022-09-17T07:08:59;11.90;99.90
4081;DHT22;2055;50.074;8.436;2022-09-17T07:11:24;11.80;99.90
4081;DHT22;2055;50.074;8.436;2022-09-17T07:13:50;11.70;99.90
4081;DHT22;2055;50.074;8.436;2022-09-17T07:16:15;11.50;99.90
4081;DHT22;2055;50.074;8.436;2022-09-17T07:18:41;11.60;99.90
4081;DHT22;2055;50.074;8.436;2022-09-17T07:21:08;11.50;99.90
4081;DHT22;2055;50.074;8.436;2022-09-17T07:23:36;11.40;99.90
4081;DHT22;2055;50.074;8.436;2022-09-17T07:26:05;11.40;99.90
4081;DHT22;2055;50.074;8.436;2022-09-17T07:28:31;11.50;99.90
4081;DHT22;2055;50.074;8.436;2022-09-17T07:30:56;11.60;99.90
4081;DHT22;2055;50.074;8.436;2022-09-17T07:33:24;11.80;99.90
4081;DHT22;2055;50.074;8.436;2022-09-17T07:35:54;11.90;99.90
4081;DHT22;2055;50.074;8.436;2022-09-17T07:38:22;12.10;99.90
4081;DHT22;2055;50.074;8.436;2022-09-17T07:43:26;12.40;99.90
4081;DHT22;2055;50.074;8.436;2022-09-17T07:45:53;12.60;99.90
4081;DHT22;2055;50.074;8.436;2022-09-17T07:48:19;12.90;99.90
4081;DHT22;2055;50.074;8.436;2022-09-17T07:50:45;13.10;99.90
4081;DHT22;2055;50.074;8.436;2022-09-17T07:53:11;13.30;99.90
4081;DHT22;2055;50.074;8.436;2022-09-17T07:55:37;13.10;99.90
4081;DHT22;2055;50.074;8.436;2022-09-17T07:58:02;12.80;99.90
4081;DHT22;2055;50.074;8.436;2022-09-17T08:00:28;12.50;99.90
4081;DHT22;2055;50.074;8.436;2022-09-17T08:02:54;12.40;99.90
4081;DHT22;2055;50.074;8.436;2022-09-17T08:05:20;12.60;99.90
4081;DHT22;2055;50.074;8.436;2022-09-17T08:07:50;12.70;99.90
4081;DHT22;2055;50.074;8.436;2022-09-17T08:10:16;12.80;99.90
4081;DHT22;2055;50.074;8.436;2022-09-17T08:12:47;12.60;99.90
4081;DHT22;2055;50.074;8.436;2022-09-17T08:15:13;12.80;99.90
4081;DHT22;2055;50.074;8.436;2022-09-17T08:17:43;12.80;99.90
4081;DHT22;2055;50.074;8.436;2022-09-17T08:20:08;12.80;99.90
4081;DHT22;2055;50.074;8.436;2022-09-17T08:22:34;12.80;99.90
4081;DHT22;2055;50.074;8.436;2022-09-17T08:25:00;13.20;99.90
4081;DHT22;2055;50.074;8.436;2022-09-17T08:27:25;13.00;99.90
4081;DHT22;2055;50.074;8.436;2022-09-17T08:29:51;13.20;99.90
4081;DHT22;2055;50.074;8.436;2022-09-17T08:32:16;13.20;99.90
4081;DHT22;2055;50.074;8.436;2022-09-17T08:34:42;13.40;99.90
4081;DHT22;2055;50.074;8.436;2022-09-17T08:37:07;13.70;99.90
4081;DHT22;2055;50.074;8.436;2022-09-17T08:39:33;13.90;99.90
4081;DHT22;2055;50.074;8.436;2022-09-17T08:44:46;14.20;99.90
4081;DHT22;2055;50.074;8.436;2022-09-17T08:47:33;14.10;99.90
4081;DHT22;2055;50.074;8.436;2022-09-17T09:04:02;14.50;99.90
4081;DHT22;2055;50.074;8.436;2022-09-17T09:06:34;14.10;99.90
4081;DHT22;2055;50.074;8.436;2022-09-17T09:09:05;14.10;99.90
4081;DHT22;2055;50.074;8.436;2022-09-17T09:11:34;14.10;99.90
4081;DHT22;2055;50.074;8.436;2022-09-17T09:14:15;14.30;99.90
4081;DHT22;2055;50.074;8.436;2022-09-17T09:16:43;14.50;99.90
4081;DHT22;2055;50.074;8.436;2022-09-17T09:19:21;14.30;99.90
4081;DHT22;2055;50.074;8.436;2022-09-17T09:22:03;14.40;99.90
4081;DHT22;2055;50.074;8.436;2022-09-17T09:24:49;14.50;99.90
4081;DHT22;2055;50.074;8.436;2022-09-17T09:30:01;14.60;99.90
4081;DHT22;2055;50.074;8.436;2022-09-17T09:35:31;15.50;99.90
4081;DHT22;2055;50.074;8.436;2022-09-17T09:38:32;15.00;99.90
4081;DHT22;2055;50.074;8.436;2022-09-17T09:41:23;14.40;99.90
4081;DHT22;2055;50.074;8.436;2022-09-17T09:52:08;13.60;99.90
4081;DHT22;2055;50.074;8.436;2022-09-17T09:57:31;13.40;99.90
4081;DHT22;2055;50.074;8.436;2022-09-17T10:00:21;13.40;99.90
4081;DHT22;2055;50.074;8.436;2022-09-17T10:02:47;13.40;99.90
4081;DHT22;2055;50.074;8.436;2022-09-17T10:05:14;13.70;99.90
4081;DHT22;2055;50.074;8.436;2022-09-17T10:07:44;13.80;99.90
4081;DHT22;2055;50.074;8.436;2022-09-17T10:10:10;13.80;99.90
4081;DHT22;2055;50.074;8.436;2022-09-17T10:12:35;13.80;99.90
4081;DHT22;2055;50.074;8.436;2022-09-17T10:15:24;13.80;99.90
4081;DHT22;2055;50.074;8.436;2022-09-17T10:18:10;13.70;99.90
4081;DHT22;2055;50.074;8.436;2022-09-17T10:20:51;13.70;99.90
4081;DHT22;2055;50.074;8.436;2022-09-17T10:23:19;13.80;99.90
4081;DHT22;2055;50.074;8.436;2022-09-17T10:25:45;14.00;99.90
4081;DHT22;2055;50.074;8.436;2022-09-17T10:28:38;13.90;99.90
4081;DHT22;2055;50.074;8.436;2022-09-17T10:31:06;13.70;99.90
4081;DHT22;2055;50.074;8.436;2022-09-17T10:33:38;14.20;99.90
4081;DHT22;2055;50.074;8.436;2022-09-17T10:36:06;14.00;99.90
4081;DHT22;2055;50.074;8.436;2022-09-17T10:38:42;13.80;99.90
4081;DHT22;2055;50.074;8.436;2022-09-17T10:43:38;13.90;99.90
4081;DHT22;2055;50.074;8.436;2022-09-17T10:46:04;13.80;99.90
4081;DHT22;2055;50.074;8.436;2022-09-17T10:48:43;14.20;99.90
4081;DHT22;2055;50.074;8.436;2022-09-17T10:51:10;14.20;99.90
4081;DHT22;2055;50.074;8.436;2022-09-17T10:56:39;15.50;99.90
4081;DHT22;2055;50.074;8.436;2022-09-17T10:59:17;15.60;99.90
4081;DHT22;2055;50.074;8.436;2022-09-17T11:10:06;15.70;99.90
4081;DHT22;2055;50.074;8.436;2022-09-17T11:15:48;15.30;99.90
4081;DHT22;2055;50.074;8.436;2022-09-17T11:27:04;15.50;99.90
4081;DHT22;2055;50.074;8.436;2022-09-17T11:29:49;15.10;99.90
4081;DHT22;2055;50.074;8.436;2022-09-17T11:35:34;16.90;99.90
4081;DHT22;2055;50.074;8.436;2022-09-17T11:41:09;17.50;99.90
4081;DHT22;2055;50.074;8.436;2022-09-17T11:43:41;16.80;99.90
4081;DHT22;2055;50.074;8.436;2022-09-17T11:46:28;16.40;99.90
4081;DHT22;2055;50.074;8.436;2022-09-17T11:49:34;15.80;99.90
4081;DHT22;2055;50.074;8.436;2022-09-17T11:52:46;15.50;99.90
4081;DHT22;2055;50.074;8.436;2022-09-17T11:54:58;14.80;99.90
4081;DHT22;2055;50.074;8.436;2022-09-17T11:57:28;14.50;99.90
4081;DHT22;2055;50.074;8.436;2022-09-17T12:05:35;14.30;99.90
4081;DHT22;2055;50.074;8.436;2022-09-17T12:08:17;15.30;99.90
4081;DHT22;2055;50.074;8.436;2022-09-17T12:11:13;16.50;99.90
4081;DHT22;2055;50.074;8.436;2022-09-17T12:16:22;16.40;99.90
4081;DHT22;2055;50.074;8.436;2022-09-17T12:21:50;15.30;99.90
4081;DHT22;2055;50.074;8.436;2022-09-17T12:24:28;15.80;99.90
4081;DHT22;2055;50.074;8.436;2022-09-17T12:41:42;18.70;99.90
4081;DHT22;2055;50.074;8.436;2022-09-17T12:53:29;17.30;99.90
4081;DHT22;2055;50.074;8.436;2022-09-17T12:56:22;17.20;99.90
4081;DHT22;2055;50.074;8.436;2022-09-17T12:59:04;17.40;99.90
4081;DHT22;2055;50.074;8.436;2022-09-17T13:07:32;16.60;99.90
4081;DHT22;2055;50.074;8.436;2022-09-17T13:12:52;16.70;99.90
4081;DHT22;2055;50.074;8.436;2022-09-17T13:15:45;17.00;99.90
4081;DHT22;2055;50.074;8.436;2022-09-17T13:18:20;18.10;99.90
4081;DHT22;2055;50.074;8.436;2022-09-17T13:23:47;18.50;99.90
4081;DHT22;2055;50.074;8.436;2022-09-17T13:26:16;18.40;99.90
4081;DHT22;2055;50.074;8.436;2022-09-17T13:28:50;18.40;99.90
4081;DHT22;2055;50.074;8.436;2022-09-17T13:31:21;18.20;99.90
4081;DHT22;2055;50.074;8.436;2022-09-17T13:33:56;18.00;99.90
4081;DHT22;2055;50.074;8.436;2022-09-17T13:36:42;18.20;99.90
4081;DHT22;2055;50.074;8.436;2022-09-17T13:39:30;17.50;99.90
4081;DHT22;2055;50.074;8.436;2022-09-17T13:42:05;17.20;99.90
4081;DHT22;2055;50.074;8.436;2022-09-17T13:44:36;18.00;99.90
4081;DHT22;2055;50.074;8.436;2022-09-17T13:47:14;17.60;99.90
4081;DHT22;2055;50.074;8.436;2022-09-17T13:50:08;18.20;99.90
4081;DHT22;2055;50.074;8.436;2022-09-17T13:52:44;17.80;99.90
4081;DHT22;2055;50.074;8.436;2022-09-17T13:55:44;18.10;99.90
4081;DHT22;2055;50.074;8.436;2022-09-17T14:00:56;19.20;99.90
4081;DHT22;2055;50.074;8.436;2022-09-17T14:22:16;16.80;99.90
4081;DHT22;2055;50.074;8.436;2022-09-17T14:24:46;16.30;99.90
4081;DHT22;2055;50.074;8.436;2022-09-17T14:35:15;14.80;99.90
4081;DHT22;2055;50.074;8.436;2022-09-17T14:37:42;13.70;99.90
4081;DHT22;2055;50.074;8.436;2022-09-17T14:40:10;12.90;99.90
4081;DHT22;2055;50.074;8.436;2022-09-17T14:42:40;12.60;99.90
4081;DHT22;2055;50.074;8.436;2022-09-17T14:45:15;12.70;99.90
4081;DHT22;2055;50.074;8.436;2022-09-17T14:47:41;14.10;99.90
4081;DHT22;2055;50.074;8.436;2022-09-17T14:50:24;15.00;99.90
4081;DHT22;2055;50.074;8.436;2022-09-17T14:52:52;14.80;99.90
4081;DHT22;2055;50.074;8.436;2022-09-17T14:55:22;15.20;99.90
4081;DHT22;2055;50.074;8.436;2022-09-17T14:57:53;14.50;99.90
4081;DHT22;2055;50.074;8.436;2022-09-17T15:00:32;13.60;99.90
4081;DHT22;2055;50.074;8.436;2022-09-17T15:02:58;13.30;99.90
4081;DHT22;2055;50.074;8.436;2022-09-17T15:05:29;13.20;99.90
4081;DHT22;2055;50.074;8.436;2022-09-17T15:10:44;13.30;99.90
4081;DHT22;2055;50.074;8.436;2022-09-17T15:13:16;13.70;99.90
4081;DHT22;2055;50.074;8.436;2022-09-17T15:16:05;14.20;99.90
4081;DHT22;2055;50.074;8.436;2022-09-17T15:18:41;15.10;99.90
4081;DHT22;2055;50.074;8.436;2022-09-17T15:23:42;16.10;99.90
4081;DHT22;2055;50.074;8.436;2022-09-17T15:26:08;15.80;99.90
4081;DHT22;2055;50.074;8.436;2022-09-17T15:28:39;15.00;99.90
4081;DHT22;2055;50.074;8.436;2022-09-17T15:31:16;14.60;99.90
4081;DHT22;2055;50.074;8.436;2022-09-17T15:33:42;14.30;99.90
4081;DHT22;2055;50.074;8.436;2022-09-17T15:36:24;14.20;99.90
4081;DHT22;2055;50.074;8.436;2022-09-17T15:38:52;14.10;99.90
4081;DHT22;2055;50.074;8.436;2022-09-17T15:41:31;14.10;99.90
4081;DHT22;2055;50.074;8.436;2022-09-17T15:44:16;14.10;99.90
4081;DHT22;2055;50.074;8.436;2022-09-17T15:46:44;13.90;99.90
4081;DHT22;2055;50.074;8.436;2022-09-17T15:49:32;13.90;99.90
4081;DHT22;2055;50.074;8.436;2022-09-17T15:52:25;13.90;99.90
4081;DHT22;2055;50.074;8.436;2022-09-17T15:54:52;13.10;99.90
4081;DHT22;2055;50.074;8.436;2022-09-17T15:57:20;12.30;99.90
4081;DHT22;2055;50.074;8.436;2022-09-17T15:59:47;11.80;99.90
4081;DHT22;2055;50.074;8.436;2022-09-17T16:02:28;11.50;99.90
4081;DHT22;2055;50.074;8.436;2022-09-17T16:07:39;11.00;99.90
4081;DHT22;2055;50.074;8.436;2022-09-17T16:10:05;10.90;99.90
4081;DHT22;2055;50.074;8.436;2022-09-17T16:12:31;10.70;99.90
4081;DHT22;2055;50.074;8.436;2022-09-17T16:14:58;10.70;99.90
4081;DHT22;2055;50.074;8.436;2022-09-17T16:20:11;11.20;99.90
4081;DHT22;2055;50.074;8.436;2022-09-17T16:22:38;11.20;99.90
4081;DHT22;2055;50.074;8.436;2022-09-17T16:25:04;11.20;99.90
4081;DHT22;2055;50.074;8.436;2022-09-17T16:27:34;11.30;99.90
4081;DHT22;2055;50.074;8.436;2022-09-17T16:30:05;11.20;99.90
4081;DHT22;2055;50.074;8.436;2022-09-17T16:32:33;11.20;99.90
4081;DHT22;2055;50.074;8.436;2022-09-17T16:34:58;11.30;99.90
4081;DHT22;2055;50.074;8.436;2022-09-17T16:37:24;11.30;99.90
4081;DHT22;2055;50.074;8.436;2022-09-17T16:39:50;11.30;99.90
4081;DHT22;2055;50.074;8.436;2022-09-17T16:42:16;11.50;99.90
4081;DHT22;2055;50.074;8.436;2022-09-17T16:44:42;11.30;99.90
4081;DHT22;2055;50.074;8.436;2022-09-17T16:47:07;11.20;99.90
4081;DHT22;2055;50.074;8.436;2022-09-17T16:49:33;11.30;99.90
4081;DHT22;2055;50.074;8.436;2022-09-17T16:51:58;11.30;99.90
4081;DHT22;2055;50.074;8.436;2022-09-17T16:54:24;11.40;99.90
4081;DHT22;2055;50.074;8.436;2022-09-17T16:56:49;11.40;99.90
4081;DHT22;2055;50.074;8.436;2022-09-17T16:59:15;11.40;99.90
4081;DHT22;2055;50.074;8.436;2022-09-17T17:01:41;11.40;99.90
4081;DHT22;2055;50.074;8.436;2022-09-17T17:04:08;11.50;99.90
4081;DHT22;2055;50.074;8.436;2022-09-17T17:06:33;11.40;99.90
4081;DHT22;2055;50.074;8.436;2022-09-17T17:08:59;11.20;99.90
4081;DHT22;2055;50.074;8.436;2022-09-17T17:11:25;11.20;99.90
4081;DHT22;2055;50.074;8.436;2022-09-17T17:13:52;11.10;99.90
4081;DHT22;2055;50.074;8.436;2022-09-17T17:16:20;11.00;99.90
4081;DHT22;2055;50.074;8.436;2022-09-17T17:18:46;10.90;99.90
4081;DHT22;2055;50.074;8.436;2022-09-17T17:21:12;10.90;99.90
4081;DHT22;2055;50.074;8.436;2022-09-17T17:23:38;10.80;99.90
4081;DHT22;2055;50.074;8.436;2022-09-17T17:26:04;10.60;99.90
4081;DHT22;2055;50.074;8.436;2022-09-17T17:28:34;10.60;99.90
4081;DHT22;2055;50.074;8.436;2022-09-17T17:31:01;10.50;99.90
4081;DHT22;2055;50.074;8.436;2022-09-17T17:33:27;10.40;99.90
4081;DHT22;2055;50.074;8.436;2022-09-17T17:35:53;10.30;99.90
4081;DHT22;2055;50.074;8.436;2022-09-17T17:38:18;10.30;99.90
4081;DHT22;2055;50.074;8.436;2022-09-17T17:40:44;10.20;99.90
4081;DHT22;2055;50.074;8.436;2022-09-17T17:43:11;10.10;99.90
4081;DHT22;2055;50.074;8.436;2022-09-17T17:45:40;10.00;99.90
4081;DHT22;2055;50.074;8.436;2022-09-17T17:48:05;9.90;99.90
4081;DHT22;2055;50.074;8.436;2022-09-17T17:50:31;9.90;99.90
4081;DHT22;2055;50.074;8.436;2022-09-17T17:52:57;10.00;99.90
4081;DHT22;2055;50.074;8.436;2022-09-17T17:55:23;10.00;99.90
4081;DHT22;2055;50.074;8.436;2022-09-17T17:57:54;10.00;99.90
4081;DHT22;2055;50.074;8.436;2022-09-17T18:00:21;10.00;99.90
4081;DHT22;2055;50.074;8.436;2022-09-17T18:02:48;10.00;99.90
4081;DHT22;2055;50.074;8.436;2022-09-17T18:05:14;10.10;99.90
4081;DHT22;2055;50.074;8.436;2022-09-17T18:07:39;10.20;99.90
4081;DHT22;2055;50.074;8.436;2022-09-17T18:10:05;10.20;99.90
4081;DHT22;2055;50.074;8.436;2022-09-17T18:12:31;10.20;99.90
4081;DHT22;2055;50.074;8.436;2022-09-17T18:14:57;10.10;99.90
4081;DHT22;2055;50.074;8.436;2022-09-17T18:17:22;10.10;99.90
4081;DHT22;2055;50.074;8.436;2022-09-17T18:19:48;10.20;99.90
4081;DHT22;2055;50.074;8.436;2022-09-17T18:22:15;10.20;99.90
4081;DHT22;2055;50.074;8.436;2022-09-17T18:24:42;10.10;99.90
4081;DHT22;2055;50.074;8.436;2022-09-17T18:27:08;10.10;99.90
4081;DHT22;2055;50.074;8.436;2022-09-17T18:29:33;10.10;99.90
4081;DHT22;2055;50.074;8.436;2022-09-17T18:31:59;9.90;99.90
4081;DHT22;2055;50.074;8.436;2022-09-17T18:34:24;10.00;99.90
4081;DHT22;2055;50.074;8.436;2022-09-17T18:36:51;9.90;99.90
4081;DHT22;2055;50.074;8.436;2022-09-17T18:39:17;9.80;99.90
4081;DHT22;2055;50.074;8.436;2022-09-17T18:41:42;9.70;99.90
4081;DHT22;2055;50.074;8.436;2022-09-17T18:44:09;9.60;99.90
4081;DHT22;2055;50.074;8.436;2022-09-17T18:46:35;9.60;99.90
4081;DHT22;2055;50.074;8.436;2022-09-17T18:49:03;9.60;99.90
4081;DHT22;2055;50.074;8.436;2022-09-17T18:51:28;9.50;99.90
4081;DHT22;2055;50.074;8.436;2022-09-17T18:53:54;9.40;99.90
4081;DHT22;2055;50.074;8.436;2022-09-17T18:56:25;9.50;99.90
4081;DHT22;2055;50.074;8.436;2022-09-17T18:58:52;9.60;99.90
4081;DHT22;2055;50.074;8.436;2022-09-17T19:01:21;9.60;99.90
4081;DHT22;2055;50.074;8.436;2022-09-17T19:03:47;9.70;99.90
4081;DHT22;2055;50.074;8.436;2022-09-17T19:06:13;9.70;99.90
4081;DHT22;2055;50.074;8.436;2022-09-17T19:08:40;9.80;99.90
4081;DHT22;2055;50.074;8.436;2022-09-17T19:11:06;9.90;99.90
4081;DHT22;2055;50.074;8.436;2022-09-17T19:13:34;9.90;99.90
4081;DHT22;2055;50.074;8.436;2022-09-17T19:16:00;9.90;99.90
4081;DHT22;2055;50.074;8.436;2022-09-17T19:18:27;9.90;99.90
4081;DHT22;2055;50.074;8.436;2022-09-17T19:20:59;9.80;99.90
4081;DHT22;2055;50.074;8.436;2022-09-17T19:23:26;9.80;99.90
4081;DHT22;2055;50.074;8.436;2022-09-17T19:25:51;9.80;99.90
4081;DHT22;2055;50.074;8.436;2022-09-17T19:28:17;9.80;99.90
4081;DHT22;2055;50.074;8.436;2022-09-17T19:30:44;9.70;99.90
4081;DHT22;2055;50.074;8.436;2022-09-17T19:33:10;9.70;99.90
4081;DHT22;2055;50.074;8.436;2022-09-17T19:35:35;9.60;99.90
4081;DHT22;2055;50.074;8.436;2022-09-17T19:38:01;9.60;99.90
4081;DHT22;2055;50.074;8.436;2022-09-17T19:40:26;9.60;99.90